Aeroporto :
LOGIN :

Iscrizione | Disclaimer

   EN    FR    IT 

 










Sommario :    VFR   VFR Marginale   IFR   IFR Intensivo   IFR Molto Intensivo
Visibilità : 
Base nubi : 
>= 8 km
>= 3000ft
5 / 8 km
1000 / 3000 ft
1500m / 5 km
500 / 1000 ft
800 / 1500m
200 / 500 ft
< 800m
< 200 ft
Simboli :   Temporali  Nebbia  Neve Forte  Precipitazioni Forti  Vento > 20 kt
SIGMETs :   Varie  Temporali  Ghiacco  Turbolenza  Onda orograficha  Ceneri Vulcaniche






- Altitudine del aeroporto : 187 ft


ETNW - Wunstorf AB

ULTIMO METAR :
  • 072120Z 26013KT 9999 BKN039 09/05 Q1011 BLU

METARs OBSOLETI :
  • 072020Z 26013KT 9999 FEW018 BKN047 09/06 Q1011 BLU
  • 071920Z 25014KT 9999 FEW015 BKN034 09/06 Q1011 BLU

TAF TAF ETNW
Valido dal 07 a 18 ore il 08 a 18 ore UTC


071701Z 0718/0818 25015G25KT 8000 NSW SCT015 BKN040
TEMPO 0718/0721 27020G33KT 5000 -SHRA BKN010TCU
TEMPO 0721/0818 26020G35KT 5000 -RA BKN020 BY ETGL



MetMap, La meteo Aeronautica in un colpo d'occhio ! - Copyright ORBIFLY Dicembre 2007 - Disclaimer

ORBIFLY MET'MAP TEAM :

Programmazione e sviluppo : Alexandra Zaïnal
Concezione : Baudouin d'Aumeries
Aiuto per la programmazione : Marc-Olivier Méhu
Supporto tecnico e logistico : Manuel Goepfert
Aiuto per la traduzione : Arnaldo La Scala

Contatto : metmap@orbifly.com




FONTI E CREDITI :

   NOAA